Time;durP1;ratioP1;P1;durP2;ratioP2;P2;SDS_P1;SDS_P2;PMS_P1;PMS_P2;Temp;Humidity;BMP_temperature;BMP_pressure;BME280_temperature;BME280_humidity;BME280_pressure;Samples;Min_cycle;Max_cycle;Signal;HPM_P1;HPM_P2
2022/03/14 00:00:17;;;;;;;17.67;9.20;;;10.80;99.00;;;;;;5019958;28;20223;-71
2022/03/14 00:02:45;;;;;;;18.10;9.27;;;10.80;98.50;;;;;;5025468;28;20625;-73
2022/03/14 00:05:14;;;;;;;13.83;9.00;;;10.90;97.80;;;;;;5018140;28;20189;-70
2022/03/14 00:07:42;;;;;;;16.27;9.07;;;10.90;97.70;;;;;;5020896;28;20247;-70
2022/03/14 00:10:10;;;;;;;18.07;9.33;;;11.00;98.00;;;;;;5020657;28;20204;-71
2022/03/14 00:12:37;;;;;;;16.43;8.90;;;11.00;98.10;;;;;;5029789;28;20221;-72
2022/03/14 00:15:08;;;;;;;19.33;9.57;;;10.90;97.90;;;;;;5019207;28;20192;-74
2022/03/14 00:17:35;;;;;;;18.90;9.77;;;10.90;98.50;;;;;;5025732;28;20219;-70
2022/03/14 00:20:04;;;;;;;16.87;9.50;;;11.00;98.80;;;;;;5018015;28;20589;-73
2022/03/14 00:22:31;;;;;;;17.37;9.40;;;11.10;98.40;;;;;;5028440;28;20192;-71
2022/03/14 00:24:57;;;;;;;15.70;8.73;;;10.90;99.20;;;;;;5024284;28;20253;-72
2022/03/14 00:27:24;;;;;;;19.80;10.07;;;10.80;99.90;;;;;;5025946;28;20216;-73
2022/03/14 00:29:54;;;;;;;17.47;10.37;;;10.50;99.90;;;;;;5025666;28;20222;-71
2022/03/14 00:32:21;;;;;;;19.07;10.90;;;10.40;99.90;;;;;;5028187;28;20200;-72
2022/03/14 00:34:48;;;;;;;22.77;11.70;;;10.40;99.90;;;;;;5024042;28;20207;-70
2022/03/14 00:37:15;;;;;;;18.57;10.60;;;10.40;99.90;;;;;;5022351;28;20280;-72
2022/03/14 00:39:42;;;;;;;19.30;10.60;;;10.50;99.90;;;;;;5023315;28;20215;-70
2022/03/14 00:42:09;;;;;;;18.50;10.77;;;10.40;99.90;;;;;;5026205;28;20198;-73
2022/03/14 00:44:35;;;;;;;22.80;10.70;;;10.30;99.90;;;;;;5023801;28;20246;-70
2022/03/14 00:47:02;;;;;;;20.73;11.40;;;10.30;99.90;;;;;;5017711;28;20247;-71
2022/03/14 00:49:29;;;;;;;20.57;11.27;;;10.20;99.90;;;;;;5024010;28;20211;-72
2022/03/14 00:51:56;;;;;;;19.17;11.87;;;10.10;99.90;;;;;;5020779;28;20250;-71
2022/03/14 00:54:22;;;;;;;20.87;10.97;;;10.20;99.90;;;;;;5018833;28;20730;-71
2022/03/14 00:56:49;;;;;;;20.17;11.00;;;10.20;99.90;;;;;;5028670;28;20203;-68
2022/03/14 00:59:16;;;;;;;20.67;11.87;;;10.20;99.90;;;;;;5015529;28;20252;-73
2022/03/14 01:01:42;;;;;;;21.30;12.23;;;10.20;99.90;;;;;;5021315;28;20192;-70
2022/03/14 01:04:09;;;;;;;19.37;11.50;;;10.20;99.90;;;;;;5021194;28;20201;-72
2022/03/14 01:06:36;;;;;;;21.30;12.20;;;10.30;99.90;;;;;;5021489;28;20198;-74
2022/03/14 01:09:03;;;;;;;18.23;11.20;;;10.30;99.90;;;;;;5015401;28;20212;-70
2022/03/14 01:11:30;;;;;;;21.13;11.90;;;10.20;99.90;;;;;;5024863;28;20701;-71
2022/03/14 01:13:56;;;;;;;19.93;11.17;;;10.20;99.90;;;;;;5026035;28;20195;-69
2022/03/14 01:16:23;;;;;;;21.23;11.87;;;10.10;99.90;;;;;;5022550;28;20589;-71
2022/03/14 01:18:52;;;;;;;19.80;11.60;;;10.20;99.90;;;;;;5024917;28;20313;-68
2022/03/14 01:21:19;;;;;;;20.37;11.17;;;10.10;99.90;;;;;;5023784;28;20284;-72
2022/03/14 01:23:49;;;;;;;19.70;11.00;;;10.00;99.90;;;;;;5021167;28;20211;-71
2022/03/14 01:26:17;;;;;;;19.17;11.30;;;9.80;99.90;;;;;;5022471;28;20668;-70
2022/03/14 01:28:43;;;;;;;18.73;10.97;;;9.80;99.90;;;;;;5024311;28;20219;-72
2022/03/14 01:31:10;;;;;;;20.43;11.63;;;9.80;99.90;;;;;;5021912;28;20210;-71
2022/03/14 01:33:37;;;;;;;21.40;11.60;;;9.80;99.90;;;;;;5020311;28;20209;-69
2022/03/14 01:36:04;;;;;;;19.67;11.00;;;9.90;99.90;;;;;;5022272;28;20222;-69
2022/03/14 01:38:31;;;;;;;21.37;11.47;;;9.70;99.90;;;;;;5023125;28;20596;-73
2022/03/14 01:40:57;;;;;;;16.97;10.77;;;9.70;99.90;;;;;;5026418;28;20228;-69
2022/03/14 01:43:25;;;;;;;23.30;11.87;;;9.70;99.90;;;;;;5020259;28;20206;-74
2022/03/14 01:45:56;;;;;;;20.17;11.63;;;9.70;99.90;;;;;;5020531;28;20205;-70
2022/03/14 01:48:24;;;;;;;20.73;12.03;;;9.80;99.90;;;;;;5026337;28;20216;-70
2022/03/14 01:50:52;;;;;;;21.13;11.50;;;9.80;99.90;;;;;;5025662;28;20731;-71
2022/03/14 01:53:20;;;;;;;21.30;11.03;;;9.70;99.90;;;;;;5019286;28;20217;-71
2022/03/14 01:55:50;;;;;;;20.13;11.93;;;9.70;99.90;;;;;;5024356;28;20206;-70
2022/03/14 01:58:17;;;;;;;18.00;10.53;;;9.70;99.90;;;;;;5028241;28;20226;-71
2022/03/14 02:00:44;;;;;;;24.57;12.17;;;9.70;99.90;;;;;;5017835;28;20645;-71
2022/03/14 02:03:11;;;;;;;21.93;11.67;;;9.80;99.90;;;;;;5019515;28;20579;-70
2022/03/14 02:05:40;;;;;;;20.13;10.80;;;9.70;99.90;;;;;;5021660;28;20574;-70
2022/03/14 02:08:07;;;;;;;17.50;9.87;;;9.80;99.90;;;;;;5022075;28;20219;-69
2022/03/14 02:10:34;;;;;;;17.17;10.40;;;9.90;99.90;;;;;;5021474;28;20214;-71
2022/03/14 02:13:08;;;;;;;18.40;10.73;;;9.90;99.90;;;;;;5028517;28;20203;-68
2022/03/14 02:15:36;;;;;;;18.83;10.37;;;10.00;99.90;;;;;;5021604;28;20214;-70
2022/03/14 02:18:03;;;;;;;17.17;10.40;;;9.90;99.90;;;;;;5025189;28;20238;-73
2022/03/14 02:20:29;;;;;;;17.17;9.80;;;9.90;99.90;;;;;;5015838;28;20224;-72
2022/03/14 02:22:56;;;;;;;18.47;10.87;;;9.90;99.90;;;;;;5018405;28;20194;-70
2022/03/14 02:25:23;;;;;;;24.23;11.23;;;10.00;99.90;;;;;;5024440;28;20194;-72
2022/03/14 02:27:50;;;;;;;20.77;10.60;;;10.00;99.90;;;;;;5021988;28;20226;-69
2022/03/14 02:30:17;;;;;;;19.70;10.87;;;10.10;99.90;;;;;;5021848;28;20203;-71
2022/03/14 02:32:45;;;;;;;17.40;9.43;;;10.20;99.90;;;;;;5022360;28;20226;-70
2022/03/14 02:35:13;;;;;;;16.77;9.73;;;10.30;99.90;;;;;;5017986;28;20681;-70
2022/03/14 02:37:40;;;;;;;16.13;9.10;;;10.20;99.90;;;;;;5021914;28;20275;-70
2022/03/14 02:40:07;;;;;;;17.53;9.37;;;10.00;99.90;;;;;;5017361;28;20261;-70
2022/03/14 02:42:34;;;;;;;15.53;9.17;;;10.10;99.90;;;;;;5024317;28;20619;-70
2022/03/14 02:45:02;;;;;;;14.80;9.23;;;10.00;99.90;;;;;;5021631;28;20205;-69
2022/03/14 02:47:30;;;;;;;16.30;9.63;;;10.00;99.90;;;;;;5023764;28;20231;-71
2022/03/14 02:49:56;;;;;;;15.83;8.73;;;9.90;99.90;;;;;;5024712;28;20200;-70
2022/03/14 02:52:23;;;;;;;16.47;9.60;;;9.90;99.90;;;;;;5024540;28;20229;-72
2022/03/14 02:54:49;;;;;;;18.60;9.20;;;9.70;99.90;;;;;;5017747;28;20198;-71
2022/03/14 02:57:16;;;;;;;18.67;9.13;;;9.70;99.90;;;;;;5022052;28;20601;-70
2022/03/14 02:59:43;;;;;;;17.57;8.83;;;9.70;99.90;;;;;;5023746;28;20633;-70
2022/03/14 03:02:10;;;;;;;14.17;8.57;;;9.70;99.90;;;;;;5023632;28;20202;-71
2022/03/14 03:04:39;;;;;;;14.57;8.57;;;9.70;99.90;;;;;;5024781;28;20277;-73
2022/03/14 03:07:07;;;;;;;14.77;8.57;;;9.70;99.90;;;;;;5024052;28;20222;-70
2022/03/14 03:09:33;;;;;;;12.43;7.70;;;9.60;99.90;;;;;;5021698;28;20208;-70
2022/03/14 03:12:01;;;;;;;14.83;8.67;;;9.50;99.90;;;;;;5019750;28;20526;-70
2022/03/14 03:14:30;;;;;;;14.27;8.47;;;9.40;99.90;;;;;;5021790;28;20262;-72
2022/03/14 03:16:57;;;;;;;15.27;8.53;;;9.30;99.90;;;;;;5022592;28;20626;-71
2022/03/14 03:19:23;;;;;;;15.53;8.87;;;9.20;99.90;;;;;;5023050;28;20303;-70
2022/03/14 03:21:50;;;;;;;16.07;9.20;;;9.10;99.90;;;;;;5021774;28;20264;-70
2022/03/14 03:24:17;;;;;;;15.03;8.53;;;9.20;99.90;;;;;;5020464;28;20197;-72
2022/03/14 03:26:43;;;;;;;13.53;8.30;;;9.20;99.90;;;;;;5018887;28;20665;-70
2022/03/14 03:29:10;;;;;;;15.97;9.13;;;9.10;99.90;;;;;;5018285;28;20216;-74
2022/03/14 03:31:37;;;;;;;14.00;8.40;;;9.10;99.90;;;;;;5016585;28;20228;-72
2022/03/14 03:34:05;;;;;;;14.07;8.13;;;8.90;99.90;;;;;;5025839;28;20208;-71
2022/03/14 03:36:31;;;;;;;12.70;7.70;;;8.80;99.90;;;;;;5021266;28;20201;-73
2022/03/14 03:38:58;;;;;;;15.50;8.63;;;8.80;99.90;;;;;;5022306;28;20224;-72
2022/03/14 03:41:25;;;;;;;16.47;8.67;;;8.80;99.90;;;;;;5022707;28;20226;-70
2022/03/14 03:43:56;;;;;;;15.67;9.00;;;8.80;99.90;;;;;;5024237;28;20294;-73
2022/03/14 03:46:23;;;;;;;17.30;9.03;;;8.80;99.90;;;;;;5023412;28;20193;-71
2022/03/14 03:48:50;;;;;;;16.27;8.93;;;8.80;99.90;;;;;;5026967;28;20216;-70
2022/03/14 03:51:16;;;;;;;14.37;9.10;;;8.80;99.90;;;;;;5026368;28;20209;-73
2022/03/14 03:53:43;;;;;;;19.57;9.67;;;8.90;99.90;;;;;;5021549;28;20201;-70
2022/03/14 03:56:10;;;;;;;16.13;9.60;;;8.80;99.90;;;;;;5024166;28;20243;-70
2022/03/14 03:58:36;;;;;;;16.73;9.23;;;8.80;99.90;;;;;;5023643;28;20274;-70
2022/03/14 04:01:03;;;;;;;14.80;9.00;;;8.80;99.90;;;;;;5024684;28;20577;-71
2022/03/14 04:03:30;;;;;;;15.27;9.10;;;8.80;99.90;;;;;;5027725;28;20225;-70
2022/03/14 04:05:57;;;;;;;16.73;8.90;;;8.90;99.90;;;;;;5026294;28;20194;-70
2022/03/14 04:08:28;;;;;;;16.03;8.57;;;8.90;99.90;;;;;;5021935;28;20228;-74
2022/03/14 04:10:54;;;;;;;16.87;9.03;;;8.90;99.90;;;;;;5026603;28;20205;-70
2022/03/14 04:13:24;;;;;;;14.47;8.73;;;9.00;99.90;;;;;;5026818;28;20222;-70
2022/03/14 04:15:51;;;;;;;15.73;8.73;;;9.10;99.90;;;;;;5035508;28;20198;-71
2022/03/14 04:18:19;;;;;;;17.27;8.90;;;9.00;99.90;;;;;;5019546;28;20258;-75
2022/03/14 04:20:47;;;;;;;14.40;8.13;;;8.90;99.90;;;;;;5024211;28;20238;-72
2022/03/14 04:23:15;;;;;;;13.33;7.93;;;9.00;99.90;;;;;;5027762;28;20204;-72
2022/03/14 04:25:43;;;;;;;14.67;8.50;;;8.90;99.90;;;;;;5024235;28;20233;-68
2022/03/14 04:28:14;;;;;;;17.80;8.90;;;8.90;99.90;;;;;;5020502;28;20214;-70
2022/03/14 04:30:41;;;;;;;14.23;8.90;;;9.00;99.90;;;;;;5019667;28;20206;-70
2022/03/14 04:33:09;;;;;;;15.10;8.80;;;9.10;99.90;;;;;;5026240;28;20198;-74
2022/03/14 04:35:36;;;;;;;12.80;7.60;;;9.00;99.90;;;;;;5026980;28;20229;-70
2022/03/14 04:38:05;;;;;;;15.90;8.60;;;9.00;99.90;;;;;;5024436;28;20233;-70
2022/03/14 04:40:35;;;;;;;16.27;8.67;;;9.10;99.90;;;;;;5027146;28;20310;-72
2022/03/14 04:43:07;;;;;;;13.53;8.00;;;9.10;99.90;;;;;;5027526;28;20194;-70
2022/03/14 04:45:35;;;;;;;14.23;8.50;;;9.10;99.90;;;;;;5024156;28;20247;-72
2022/03/14 04:48:06;;;;;;;11.73;7.43;;;9.10;99.90;;;;;;5025650;28;20498;-70
2022/03/14 04:50:34;;;;;;;13.17;7.67;;;9.20;99.90;;;;;;5022282;28;20222;-74
2022/03/14 04:53:02;;;;;;;13.43;8.17;;;9.30;99.90;;;;;;5025414;28;20204;-68
2022/03/14 04:55:29;;;;;;;11.80;7.20;;;9.30;99.90;;;;;;5022308;28;20199;-71
2022/03/14 04:57:55;;;;;;;13.80;8.50;;;9.20;99.90;;;;;;5019251;28;20284;-70
2022/03/14 05:00:22;;;;;;;10.57;6.80;;;9.20;99.90;;;;;;5023162;28;20223;-70
2022/03/14 05:02:49;;;;;;;11.43;7.10;;;9.30;99.90;;;;;;5029136;28;20197;-73
2022/03/14 05:05:16;;;;;;;11.97;6.83;;;9.50;99.90;;;;;;5028996;28;20687;-71
2022/03/14 05:07:42;;;;;;;11.50;7.30;;;9.40;99.90;;;;;;5023165;28;20218;-70
2022/03/14 05:10:10;;;;;;;11.90;7.53;;;9.40;99.90;;;;;;5038137;28;20255;-70
2022/03/14 05:12:37;;;;;;;15.03;7.90;;;9.20;99.90;;;;;;5029519;28;20201;-73
2022/03/14 05:15:04;;;;;;;12.97;8.03;;;9.20;99.90;;;;;;5023445;28;20200;-71
2022/03/14 05:17:31;;;;;;;10.90;7.07;;;9.20;99.90;;;;;;5025899;28;20641;-71
2022/03/14 05:19:58;;;;;;;12.33;7.07;;;9.20;99.90;;;;;;5023734;28;20202;-72
2022/03/14 05:22:24;;;;;;;14.93;7.00;;;9.20;99.90;;;;;;5025365;28;20199;-70
2022/03/14 05:24:51;;;;;;;12.40;7.27;;;9.20;99.90;;;;;;5024853;28;20248;-70
2022/03/14 05:27:18;;;;;;;10.87;6.67;;;9.30;99.90;;;;;;5028900;28;20219;-70
2022/03/14 05:29:45;;;;;;;11.83;6.10;;;9.20;99.90;;;;;;5022746;28;20193;-70
2022/03/14 05:32:12;;;;;;;10.30;6.17;;;9.20;99.90;;;;;;5023735;28;20203;-70
2022/03/14 05:34:38;;;;;;;13.73;6.07;;;9.20;99.90;;;;;;5020440;28;20684;-70
2022/03/14 05:37:05;;;;;;;8.70;5.50;;;9.20;99.90;;;;;;5019905;28;20193;-72
2022/03/14 05:39:32;;;;;;;10.47;5.10;;;9.20;99.90;;;;;;5022842;28;20196;-70
2022/03/14 05:41:59;;;;;;;8.03;5.10;;;9.30;99.90;;;;;;5026581;28;20218;-70
2022/03/14 05:44:25;;;;;;;8.77;5.33;;;9.20;99.90;;;;;;5026752;28;20198;-70
2022/03/14 05:46:52;;;;;;;8.17;5.17;;;9.30;99.90;;;;;;5023438;28;20204;-72
2022/03/14 05:49:19;;;;;;;7.73;4.87;;;9.20;99.90;;;;;;5025710;28;20224;-70
2022/03/14 05:51:46;;;;;;;8.37;5.63;;;9.20;99.90;;;;;;5018400;28;20211;-70
2022/03/14 05:54:13;;;;;;;13.23;6.80;;;9.20;99.90;;;;;;5027388;28;20199;-71
2022/03/14 05:56:40;;;;;;;11.10;6.50;;;9.10;99.90;;;;;;5020350;28;20236;-70
2022/03/14 05:59:10;;;;;;;13.20;7.50;;;9.10;99.90;;;;;;5021309;28;20218;-71
2022/03/14 06:01:38;;;;;;;14.40;7.07;;;9.10;99.90;;;;;;5017441;28;20226;-72
2022/03/14 06:04:05;;;;;;;14.80;6.83;;;9.10;99.90;;;;;;5023160;28;20226;-74
2022/03/14 06:06:34;;;;;;;11.60;7.00;;;9.10;99.90;;;;;;5024223;28;20604;-70
2022/03/14 06:09:00;;;;;;;10.43;5.87;;;9.10;99.90;;;;;;5023561;28;20215;-70
2022/03/14 06:11:27;;;;;;;8.73;5.70;;;9.10;99.90;;;;;;5024374;28;20266;-68
2022/03/14 06:13:54;;;;;;;9.23;5.60;;;9.00;99.90;;;;;;5021466;28;20585;-70
2022/03/14 06:16:21;;;;;;;7.50;4.27;;;9.00;99.90;;;;;;5021698;28;20661;-70
2022/03/14 06:18:48;;;;;;;8.20;4.00;;;9.00;99.90;;;;;;5020005;28;20670;-69
2022/03/14 06:21:15;;;;;;;5.03;3.33;;;8.90;99.90;;;;;;5025059;28;20217;-70
2022/03/14 06:23:41;;;;;;;5.93;3.47;;;8.90;99.90;;;;;;5024660;28;20198;-70
2022/03/14 06:26:08;;;;;;;3.77;2.57;;;9.10;99.90;;;;;;5022303;28;20624;-69
2022/03/14 06:28:35;;;;;;;4.23;2.47;;;9.10;99.90;;;;;;5020009;28;20225;-70
2022/03/14 06:31:01;;;;;;;3.73;2.67;;;9.10;99.90;;;;;;5028822;28;20614;-69
2022/03/14 06:33:28;;;;;;;2.87;2.10;;;9.20;99.90;;;;;;5025982;28;20688;-73
2022/03/14 06:35:55;;;;;;;2.53;2.03;;;9.20;99.90;;;;;;5019609;28;20664;-73
2022/03/14 06:38:21;;;;;;;2.43;1.87;;;9.20;99.90;;;;;;5024919;28;20667;-73
2022/03/14 06:40:48;;;;;;;2.17;1.83;;;9.10;99.90;;;;;;5017932;28;20221;-74
2022/03/14 06:43:20;;;;;;;3.00;2.10;;;9.10;99.90;;;;;;5017943;28;20676;-73
2022/03/14 06:45:47;;;;;;;3.37;2.13;;;9.10;99.90;;;;;;5024666;28;20204;-72
2022/03/14 06:48:14;;;;;;;2.00;1.70;;;9.20;99.90;;;;;;5021302;28;20225;-72
2022/03/14 06:50:41;;;;;;;1.93;1.63;;;9.30;99.90;;;;;;5020457;28;20210;-73
2022/03/14 06:53:08;;;;;;;3.63;1.60;;;9.30;99.90;;;;;;5021014;28;20196;-72
2022/03/14 06:55:34;;;;;;;2.30;1.70;;;9.30;99.90;;;;;;5021366;28;20202;-71
2022/03/14 06:58:02;;;;;;;2.60;1.80;;;9.40;99.90;;;;;;5021627;28;20260;-75
2022/03/14 07:00:29;;;;;;;2.07;1.73;;;9.50;99.90;;;;;;5010166;28;20214;-72
2022/03/14 07:02:56;;;;;;;1.80;1.37;;;9.50;99.90;;;;;;5018930;28;20198;-74
2022/03/14 07:05:25;;;;;;;3.00;1.70;;;9.50;99.90;;;;;;5016677;28;20197;-73
2022/03/14 07:07:53;;;;;;;2.43;1.50;;;9.60;99.90;;;;;;5023648;28;20216;-72
2022/03/14 07:10:20;;;;;;;3.67;1.50;;;9.70;99.90;;;;;;5019443;28;20196;-72
2022/03/14 07:12:49;;;;;;;3.73;1.60;;;9.80;99.90;;;;;;5021594;28;20560;-72
2022/03/14 07:15:20;;;;;;;2.77;1.60;;;9.90;99.90;;;;;;5013073;28;20195;-75
2022/03/14 07:17:48;;;;;;;4.73;1.70;;;9.90;99.90;;;;;;5022038;28;20222;-75
2022/03/14 07:20:18;;;;;;;2.83;1.50;;;9.90;99.90;;;;;;5019933;28;20198;-72
2022/03/14 07:22:49;;;;;;;3.83;1.70;;;9.90;99.90;;;;;;5018075;28;20222;-72
2022/03/14 07:25:20;;;;;;;4.70;1.50;;;10.00;99.90;;;;;;5022877;28;20683;-73
2022/03/14 07:27:47;;;;;;;3.40;1.50;;;10.00;99.90;;;;;;5023396;28;20630;-73
2022/03/14 07:30:14;;;;;;;2.53;1.47;;;10.00;99.90;;;;;;5023753;28;20192;-75
2022/03/14 07:32:41;;;;;;;3.07;1.53;;;10.00;99.90;;;;;;5021568;28;20228;-71
2022/03/14 07:35:09;;;;;;;3.07;1.53;;;9.90;99.90;;;;;;5023085;28;20422;-72
2022/03/14 07:37:39;;;;;;;4.83;1.80;;;9.80;99.90;;;;;;5020318;28;20226;-74
2022/03/14 07:40:07;;;;;;;3.73;1.83;;;9.80;99.90;;;;;;5019347;28;20203;-72
2022/03/14 07:42:42;;;;;;;4.73;1.70;;;9.80;99.90;;;;;;5022952;28;20275;-72
2022/03/14 07:45:10;;;;;;;3.10;1.63;;;10.00;99.90;;;;;;5016115;28;20198;-69
2022/03/14 07:47:38;;;;;;;2.63;1.73;;;10.10;99.90;;;;;;5021884;28;20807;-71
2022/03/14 07:50:05;;;;;;;5.67;1.70;;;10.20;99.90;;;;;;5019291;28;20200;-71
2022/03/14 07:52:33;;;;;;;2.93;1.60;;;10.30;99.90;;;;;;5026387;28;20199;-74
2022/03/14 07:55:00;;;;;;;3.07;1.50;;;10.50;99.90;;;;;;5023529;28;20595;-74
2022/03/14 07:57:27;;;;;;;4.47;1.57;;;10.40;99.90;;;;;;5014444;28;20965;-73
2022/03/14 07:59:54;;;;;;;2.90;1.47;;;10.50;99.90;;;;;;5024896;28;20203;-73
2022/03/14 08:02:20;;;;;;;7.77;2.10;;;10.50;99.90;;;;;;5019708;28;20213;-73
2022/03/14 08:04:47;;;;;;;4.57;1.50;;;10.40;99.90;;;;;;5023870;28;20222;-72
2022/03/14 08:07:14;;;;;;;8.40;1.73;;;10.50;99.90;;;;;;5022730;28;20226;-72
2022/03/14 08:09:41;;;;;;;3.27;1.60;;;10.50;99.90;;;;;;5019300;28;20210;-72
2022/03/14 08:12:08;;;;;;;2.80;2.00;;;10.40;99.90;;;;;;5013593;28;20615;-72
2022/03/14 08:14:35;;;;;;;3.37;1.80;;;10.60;99.90;;;;;;5018408;28;20261;-72
2022/03/14 08:17:02;;;;;;;2.37;1.70;;;10.70;99.90;;;;;;5020190;28;20202;-69
2022/03/14 08:19:28;;;;;;;2.77;1.67;;;10.90;99.90;;;;;;5022532;28;20265;-70
2022/03/14 08:21:57;;;;;;;4.60;1.90;;;11.10;99.90;;;;;;5023894;28;20220;-75
2022/03/14 08:24:24;;;;;;;3.70;1.70;;;11.30;99.90;;;;;;5024835;28;20633;-73
2022/03/14 08:26:51;;;;;;;4.50;1.60;;;11.50;99.90;;;;;;5024820;28;20244;-73
2022/03/14 08:29:17;;;;;;;4.97;1.80;;;11.60;99.90;;;;;;5012906;28;20227;-75
2022/03/14 08:31:44;;;;;;;3.77;1.70;;;11.80;99.90;;;;;;5018274;28;20224;-71
2022/03/14 08:34:11;;;;;;;3.40;1.63;;;11.80;99.90;;;;;;5018637;28;20203;-72
2022/03/14 08:36:40;;;;;;;6.07;2.03;;;12.00;99.90;;;;;;5022866;28;20204;-73
2022/03/14 08:39:08;;;;;;;4.43;1.80;;;11.90;99.90;;;;;;5022458;28;20227;-72
2022/03/14 08:41:36;;;;;;;4.00;1.60;;;12.10;99.90;;;;;;5023454;28;20243;-70
2022/03/14 08:44:07;;;;;;;4.67;2.00;;;12.20;99.90;;;;;;5022422;28;20201;-71
2022/03/14 08:46:34;;;;;;;6.70;2.07;;;12.20;99.90;;;;;;5023374;28;20626;-71
2022/03/14 08:49:01;;;;;;;6.17;2.30;;;12.30;99.90;;;;;;5022264;28;20226;-72
2022/03/14 08:51:28;;;;;;;4.83;1.90;;;12.20;99.90;;;;;;5029772;28;20663;-72
2022/03/14 08:53:55;;;;;;;4.53;1.70;;;12.20;99.90;;;;;;5027380;28;20284;-73
2022/03/14 08:56:22;;;;;;;5.33;1.67;;;12.20;99.90;;;;;;5025853;28;20197;-71
2022/03/14 08:58:48;;;;;;;5.30;1.93;;;12.10;99.90;;;;;;5021889;28;20228;-71
2022/03/14 09:01:15;;;;;;;6.23;1.90;;;12.20;99.90;;;;;;5018720;28;20413;-71
2022/03/14 09:03:42;;;;;;;4.17;1.80;;;12.20;99.90;;;;;;5023318;28;20421;-71
2022/03/14 09:06:09;;;;;;;7.63;1.97;;;11.90;99.90;;;;;;5027955;28;20196;-69
2022/03/14 09:08:36;;;;;;;4.93;1.67;;;11.80;99.90;;;;;;5025332;28;20221;-73
2022/03/14 09:11:03;;;;;;;3.03;1.40;;;11.80;99.90;;;;;;5016685;28;20221;-73
2022/03/14 09:13:29;;;;;;;6.23;1.70;;;11.90;99.90;;;;;;5016179;28;20208;-70
2022/03/14 09:15:56;;;;;;;6.40;1.60;;;12.00;99.90;;;;;;5024447;28;20201;-69
2022/03/14 09:18:28;;;;;;;7.37;1.70;;;11.90;99.90;;;;;;5021362;28;20220;-72
2022/03/14 09:20:55;;;;;;;2.83;1.70;;;11.90;99.90;;;;;;5023780;28;20193;-71
2022/03/14 09:23:21;;;;;;;4.23;1.63;;;12.00;99.90;;;;;;5023615;28;20244;-73
2022/03/14 09:25:48;;;;;;;3.77;1.40;;;12.20;99.90;;;;;;5024100;28;20294;-71
2022/03/14 09:28:15;;;;;;;3.77;1.80;;;12.40;99.90;;;;;;5020610;28;20222;-72
2022/03/14 09:30:43;;;;;;;5.70;1.63;;;12.60;99.90;;;;;;5017570;28;20282;-71
2022/03/14 09:33:10;;;;;;;4.07;1.50;;;12.60;99.90;;;;;;5027877;28;20207;-73
2022/03/14 09:35:36;;;;;;;2.33;1.20;;;12.60;99.90;;;;;;5015724;28;20205;-72
2022/03/14 09:38:03;;;;;;;3.37;1.50;;;12.80;99.90;;;;;;5026603;28;20229;-72
2022/03/14 09:40:31;;;;;;;3.87;1.50;;;13.10;99.90;;;;;;5018689;28;20203;-72
2022/03/14 09:42:59;;;;;;;2.80;1.30;;;13.30;99.90;;;;;;5019196;28;20216;-75
2022/03/14 09:45:27;;;;;;;4.93;1.73;;;13.50;99.90;;;;;;5022628;28;20742;-74
2022/03/14 09:47:59;;;;;;;2.60;1.30;;;13.60;99.90;;;;;;5021145;28;20224;-74
2022/03/14 09:50:33;;;;;;;3.70;1.60;;;13.60;99.90;;;;;;5020173;28;20276;-70
2022/03/14 09:53:09;;;;;;;3.73;1.80;;;13.20;99.90;;;;;;5018428;28;20277;-71
2022/03/14 09:55:41;;;;;;;3.83;1.30;;;13.00;99.90;;;;;;5021195;28;20282;-77
2022/03/14 09:58:19;;;;;;;6.80;1.60;;;13.10;99.90;;;;;;5020962;28;20781;-74
2022/03/14 10:00:47;;;;;;;6.23;1.90;;;13.20;99.90;;;;;;5025894;28;20931;-70
2022/03/14 10:03:19;;;;;;;2.67;1.40;;;13.30;99.90;;;;;;5023599;28;20223;-73
2022/03/14 10:05:47;;;;;;;3.30;1.30;;;13.00;99.90;;;;;;5024093;28;20211;-71
2022/03/14 10:08:14;;;;;;;3.93;1.30;;;13.00;99.90;;;;;;5026572;28;20847;-74
2022/03/14 10:10:42;;;;;;;5.23;1.43;;;13.00;99.90;;;;;;5024627;28;20192;-70
2022/03/14 10:13:29;;;;;;;3.77;1.30;;;13.20;99.90;;;;;;5024526;28;20231;-73
2022/03/14 10:15:55;;;;;;;2.43;1.30;;;13.60;99.90;;;;;;5021204;28;20215;-78
2022/03/14 10:18:22;;;;;;;2.77;1.27;;;13.90;99.90;;;;;;5023018;28;20734;-80
2022/03/14 10:21:02;;;;;;;4.53;1.43;;;13.90;99.90;;;;;;5025565;28;20236;-82
2022/03/14 10:23:33;;;;;;;5.00;1.60;;;13.90;99.90;;;;;;5041712;28;20659;-77
2022/03/14 10:26:00;;;;;;;2.60;1.40;;;13.90;99.90;;;;;;5023108;28;20609;-77
2022/03/14 10:28:31;;;;;;;3.93;1.33;;;13.60;99.90;;;;;;5017900;28;20219;-81
2022/03/14 10:31:26;;;;;;;6.97;2.00;;;13.50;99.90;;;;;;5017223;28;20202;-77
2022/03/14 10:34:04;;;;;;;7.23;1.20;;;13.30;99.90;;;;;;5019333;28;20202;-71
2022/03/14 10:37:00;;;;;;;4.87;1.30;;;13.30;99.90;;;;;;5025456;28;20284;-72
2022/03/14 10:39:29;;;;;;;4.93;1.40;;;13.30;99.90;;;;;;5009482;28;20196;-72
2022/03/14 10:42:07;;;;;;;3.50;1.20;;;13.30;99.90;;;;;;5021028;28;20586;-74
2022/03/14 10:44:50;;;;;;;1.50;1.07;;;13.40;99.90;;;;;;5023100;28;20647;-72
2022/03/14 10:47:19;;;;;;;2.77;1.03;;;13.80;99.90;;;;;;5023427;28;20226;-75
2022/03/14 10:49:46;;;;;;;1.50;1.13;;;13.90;99.90;;;;;;5014664;28;20287;-75
2022/03/14 10:52:18;;;;;;;1.77;1.20;;;14.10;99.90;;;;;;5023152;28;20685;-81
2022/03/14 10:54:46;;;;;;;3.80;1.10;;;13.90;99.90;;;;;;5021860;28;20207;-75
2022/03/14 10:57:14;;;;;;;2.93;1.23;;;13.60;99.90;;;;;;5016915;28;20220;-74
2022/03/14 10:59:43;;;;;;;2.70;1.33;;;13.60;99.90;;;;;;5021492;28;20210;-71
2022/03/14 11:02:19;;;;;;;2.70;1.10;;;13.50;99.90;;;;;;5032798;28;20224;-72
2022/03/14 11:04:48;;;;;;;2.20;1.10;;;13.40;99.90;;;;;;5023914;28;20211;-70
2022/03/14 11:07:17;;;;;;;3.33;1.27;;;13.40;99.90;;;;;;5022501;28;20234;-72
2022/03/14 11:09:49;;;;;;;4.23;1.53;;;13.50;99.90;;;;;;5016689;28;20202;-72
2022/03/14 11:12:18;;;;;;;2.40;1.20;;;13.60;99.90;;;;;;5017376;28;20199;-72
2022/03/14 11:14:53;;;;;;;2.97;1.60;;;13.60;99.90;;;;;;5022668;28;20259;-72
2022/03/14 11:17:25;;;;;;;2.97;1.20;;;13.40;99.90;;;;;;5018076;28;20219;-70
2022/03/14 11:19:54;;;;;;;2.40;1.33;;;13.40;99.90;;;;;;5017685;28;20193;-72
2022/03/14 11:22:22;;;;;;;3.33;1.43;;;13.70;99.90;;;;;;5015143;28;20224;-74
2022/03/14 11:24:52;;;;;;;4.57;1.40;;;13.70;99.90;;;;;;5021245;28;20208;-71
2022/03/14 11:27:26;;;;;;;3.47;1.60;;;13.70;99.90;;;;;;5020650;28;20850;-74
2022/03/14 11:30:00;;;;;;;3.77;1.40;;;13.80;99.90;;;;;;5017483;28;20219;-74
2022/03/14 11:32:27;;;;;;;3.17;1.70;;;14.00;99.90;;;;;;5018988;28;20574;-76
2022/03/14 11:35:02;;;;;;;4.03;1.60;;;14.20;99.90;;;;;;5021090;28;20199;-78
2022/03/14 11:37:31;;;;;;;7.07;1.83;;;13.80;99.90;;;;;;5013972;28;20220;-75
2022/03/14 11:40:00;;;;;;;3.17;1.90;;;13.90;99.90;;;;;;5021441;28;20195;-83
2022/03/14 11:42:26;;;;;;;3.77;2.10;;;13.80;99.90;;;;;;5024729;28;20226;-77
2022/03/14 11:44:54;;;;;;;7.20;2.37;;;13.70;99.90;;;;;;5016174;28;20194;-82
2022/03/14 11:47:23;;;;;;;2.70;1.80;;;14.00;99.90;;;;;;5022155;28;20235;-78
2022/03/14 11:49:51;;;;;;;6.13;2.70;;;14.50;99.90;;;;;;5027835;28;20271;-83
2022/03/14 11:52:20;;;;;;;4.33;2.03;;;14.60;99.90;;;;;;5036997;28;20544;-80
2022/03/14 11:54:58;;;;;;;2.93;1.50;;;14.70;99.90;;;;;;5018926;28;20203;-77
2022/03/14 11:57:38;;;;;;;4.33;2.10;;;14.90;99.90;;;;;;5019404;28;20601;-78
2022/03/14 12:00:32;;;;;;;5.33;2.03;;;14.80;99.90;;;;;;5021298;28;20238;-75
2022/03/14 12:03:06;;;;;;;5.37;3.00;;;14.90;99.90;;;;;;5021403;28;20218;-75
2022/03/14 12:05:32;;;;;;;4.13;1.87;;;15.00;99.90;;;;;;5021122;28;20195;-73
2022/03/14 12:08:01;;;;;;;5.43;1.90;;;15.00;99.90;;;;;;5020921;28;20342;-70
2022/03/14 12:10:29;;;;;;;2.17;1.27;;;14.70;99.90;;;;;;5030564;28;20564;-74
2022/03/14 12:12:59;;;;;;;2.13;1.10;;;14.20;99.90;;;;;;5028168;28;20210;-77
2022/03/14 12:15:41;;;;;;;3.13;1.43;;;14.10;99.90;;;;;;5021372;28;20198;-77
2022/03/14 12:18:27;;;;;;;2.27;1.50;;;14.00;99.90;;;;;;5023489;28;20711;-80
2022/03/14 12:20:56;;;;;;;3.33;1.50;;;13.90;99.90;;;;;;5022791;28;20209;-82
2022/03/14 12:23:26;;;;;;;4.47;1.33;;;13.50;99.90;;;;;;5021874;28;20221;-81
2022/03/14 12:25:54;;;;;;;4.93;1.50;;;13.30;99.90;;;;;;5023487;28;20200;-81
2022/03/14 12:28:36;;;;;;;3.37;1.53;;;13.20;99.90;;;;;;5025015;28;20225;-80
2022/03/14 12:31:14;;;;;;;2.50;1.17;;;13.20;99.90;;;;;;5023743;28;20260;-84
2022/03/14 12:33:46;;;;;;;2.77;1.17;;;13.30;99.90;;;;;;5025787;28;20353;-84
2022/03/14 12:36:34;;;;;;;2.70;1.10;;;13.60;99.90;;;;;;5025569;28;20664;-78
2022/03/14 12:39:10;;;;;;;2.93;1.27;;;13.70;99.90;;;;;;5023023;28;20235;-79
2022/03/14 12:41:38;;;;;;;2.47;1.10;;;13.90;99.90;;;;;;5027923;28;20203;-74
2022/03/14 12:44:25;;;;;;;4.30;1.90;;;13.80;99.90;;;;;;5027238;28;20508;-75
2022/03/14 12:46:58;;;;;;;5.43;3.10;;;13.90;99.90;;;;;;5024549;28;20195;-72
2022/03/14 12:49:49;;;;;;;5.70;2.30;;;13.90;99.90;;;;;;5027010;28;20267;-76
2022/03/14 12:52:18;;;;;;;3.73;1.90;;;14.00;99.90;;;;;;5026857;28;20672;-77